Mayna, Louisiana
Current Conditions -  °F | °C
As of 5:53 AM on Monday 22 Dec 2014 (Local Time) from KESF Reporting Station
Overcast Overcast  
Wind Chill: 50°   Ceiling: 200
Heat Index: 50°   Visibility: 10mi
Dew Point: 50°   Wind: 5mph
Humidity: 100%   Direction: 170°S
Pressure: 29.81"   Gusts: NA
Location:  31.5028°N, 91.9028°W
Report Text: KESF 221153Z AUTO 17004KT 10SM OVC002 10/10 A2981 RMK AO2 SLP095 T01000100 10100 20089 56019
Loading
Personal Weather Stations






























Interactive Weather Map New forecast layout! Learn more

10-Day Weather Forecast

Advertisements
Track Severe Weather on mobile